createdAt,value
2023-02-20T00:02:03.945Z,2.9
2023-02-20T00:04:06.887Z,4
2023-02-20T00:06:10.244Z,4.3
2023-02-20T00:08:13.081Z,2.2
2023-02-20T00:10:16.056Z,3.9
2023-02-20T00:12:19.134Z,4.1
2023-02-20T00:16:28.456Z,5.1
2023-02-20T00:20:34.620Z,3.5
2023-02-20T00:26:43.772Z,4.7
2023-02-20T00:28:48.439Z,3.7
2023-02-20T00:30:54.683Z,4.3
2023-02-20T00:32:57.726Z,5.3
2023-02-20T00:37:03.890Z,5.1
2023-02-20T00:39:06.945Z,4.1
2023-02-20T00:43:13.065Z,5.7
2023-02-20T00:45:19.353Z,5.9
2023-02-20T00:47:22.400Z,6.2
2023-02-20T00:50:28.606Z,6.2
2023-02-20T00:52:31.691Z,5
2023-02-20T00:54:34.761Z,6.7
2023-02-20T00:56:37.834Z,6.3
2023-02-20T00:58:44.117Z,7.3
2023-02-20T01:00:47.162Z,6.4
2023-02-20T01:02:50.295Z,6.4
2023-02-20T01:04:53.322Z,5.4
2023-02-20T01:06:56.389Z,6.2
2023-02-20T01:13:08.775Z,9.9
2023-02-20T01:19:17.994Z,7.5
2023-02-20T01:21:21.053Z,6.3
2023-02-20T01:23:24.121Z,9.2
2023-02-20T01:25:27.208Z,8.1
2023-02-20T01:27:33.461Z,7.6
2023-02-20T01:29:36.646Z,7
2023-02-20T01:31:39.714Z,9
2023-02-20T01:33:42.662Z,10.5
2023-02-20T01:35:45.719Z,9.7
2023-02-20T01:37:48.799Z,10.9
2023-02-20T01:39:51.979Z,11.1
2023-02-20T01:41:58.147Z,7.4
2023-02-20T01:44:01.210Z,9.5
2023-02-20T01:46:04.284Z,9.8
2023-02-20T01:48:28.549Z,8.3
2023-02-20T01:50:31.606Z,8.9
2023-02-20T01:52:34.677Z,10
2023-02-20T01:54:40.964Z,9.3
2023-02-20T01:56:44.037Z,8.1
2023-02-20T01:58:47.135Z,10.4
2023-02-20T02:00:50.217Z,8.6
2023-02-20T02:02:53.253Z,7.8
2023-02-20T02:04:56.336Z,12.4
2023-02-20T02:09:05.679Z,8.7
2023-02-20T02:11:08.740Z,10.2
2023-02-20T02:15:14.875Z,10.6
2023-02-20T02:17:17.934Z,11
2023-02-20T02:19:21.056Z,9
2023-02-20T02:21:24.082Z,10.3
2023-02-20T02:23:30.354Z,11.3
2023-02-20T02:25:33.428Z,10.3
2023-02-20T02:27:36.503Z,9.8
2023-02-20T02:29:39.554Z,10.4
2023-02-20T02:33:45.676Z,9.6
2023-02-20T02:35:48.741Z,7.1
2023-02-20T02:37:55.036Z,11.6
2023-02-20T02:39:58.067Z,10.7
2023-02-20T02:42:01.128Z,11.6
2023-02-20T02:43:04.285Z,12.4
2023-02-20T02:45:07.325Z,12.4
2023-02-20T02:47:10.381Z,10.4
2023-02-20T02:49:13.442Z,12
2023-02-20T02:51:19.724Z,13.7
2023-02-20T02:53:22.819Z,13.6
2023-02-20T02:55:25.896Z,12.3
2023-02-20T02:59:32.013Z,13.9
2023-02-20T03:01:35.081Z,13.1
2023-02-20T03:03:38.141Z,15.4
2023-02-20T03:05:44.392Z,19.6
2023-02-20T03:07:47.483Z,17
2023-02-20T03:13:56.708Z,16.6
2023-02-20T03:20:09.117Z,16.9
2023-02-20T03:22:12.188Z,19.7
2023-02-20T03:26:18.977Z,17.3
2023-02-20T03:28:21.388Z,21.4
2023-02-20T03:32:27.533Z,20.2
2023-02-20T03:36:36.881Z,20.7
2023-02-20T03:38:39.971Z,21.1
2023-02-20T03:41:46.170Z,19.7
2023-02-20T03:43:49.266Z,23.6
2023-02-20T03:47:58.671Z,23.7
2023-02-20T03:50:01.732Z,19.3
2023-02-20T03:52:04.774Z,21.9
2023-02-20T03:54:07.857Z,20.2
2023-02-20T03:56:11.237Z,22.5
2023-02-20T03:58:14.011Z,20.7
2023-02-20T04:00:17.074Z,22
2023-02-20T04:02:23.405Z,23.5
2023-02-20T04:04:26.438Z,20.4
2023-02-20T04:08:32.571Z,17.2
2023-02-20T04:10:35.656Z,20.1
2023-02-20T04:12:38.709Z,23.5
2023-02-20T04:14:41.803Z,14
2023-02-20T04:16:48.144Z,20.2
2023-02-20T04:18:51.167Z,20.3
2023-02-20T04:20:54.272Z,19.2
2023-02-20T04:22:57.348Z,20.5
2023-02-20T04:25:00.422Z,18
2023-02-20T04:29:06.587Z,19.6
2023-02-20T04:33:15.963Z,23.2
2023-02-20T04:36:22.201Z,17.9
2023-02-20T04:38:25.284Z,20.4
2023-02-20T04:40:28.368Z,11.5
2023-02-20T04:44:37.744Z,18.1
2023-02-20T04:46:40.854Z,20.2
2023-02-20T04:48:43.933Z,20.4
2023-02-20T04:50:47.034Z,17.1
2023-02-20T04:52:50.112Z,18.3
2023-02-20T04:54:53.207Z,18.1
2023-02-20T04:56:56.282Z,18.3
2023-02-20T04:59:02.592Z,17
2023-02-20T05:01:05.734Z,15.2
2023-02-20T05:03:08.776Z,17
2023-02-20T05:05:11.869Z,21.7
2023-02-20T05:07:14.994Z,19.2
2023-02-20T05:11:21.142Z,18.6
2023-02-20T05:13:27.438Z,21.6
2023-02-20T05:15:30.573Z,17.6
2023-02-20T05:19:36.697Z,20
2023-02-20T05:25:45.994Z,18.6
2023-02-20T05:29:55.388Z,22.4
2023-02-20T05:31:58.512Z,22.2
2023-02-20T05:34:22.891Z,22
2023-02-20T05:36:25.812Z,20.9
2023-02-20T05:38:28.936Z,21.8
2023-02-20T05:40:35.220Z,21.9
2023-02-20T05:42:38.324Z,19.5
2023-02-20T05:48:47.612Z,22.4
2023-02-20T05:50:50.713Z,20.6
2023-02-20T05:52:53.807Z,20.2
2023-02-20T05:55:00.128Z,21.5
2023-02-20T05:57:03.190Z,20.2
2023-02-20T05:59:06.297Z,19.5
2023-02-20T06:01:09.379Z,19.9
2023-02-20T06:03:12.479Z,14.4
2023-02-20T06:05:15.600Z,16.4
2023-02-20T06:07:18.652Z,16.3
2023-02-20T06:09:24.965Z,20.5
2023-02-20T06:11:28.080Z,20.4
2023-02-20T06:13:31.170Z,19.4
2023-02-20T06:15:34.258Z,14.8
2023-02-20T06:17:37.361Z,17.1
2023-02-20T06:19:40.457Z,17.4
2023-02-20T06:21:43.544Z,18.3
2023-02-20T06:23:51.382Z,16.4
2023-02-20T06:27:57.582Z,15.9
2023-02-20T06:31:03.867Z,16.9
2023-02-20T06:33:06.930Z,17.1
2023-02-20T06:35:10.019Z,17.9
2023-02-20T06:37:16.293Z,15.8
2023-02-20T06:39:19.432Z,16.9
2023-02-20T06:41:22.505Z,15.4
2023-02-20T06:43:25.623Z,15.2
2023-02-20T06:45:28.701Z,14.5
2023-02-20T06:49:34.901Z,13.3
2023-02-20T06:51:41.209Z,12.6
2023-02-20T06:55:47.396Z,13
2023-02-20T07:06:06.124Z,13.5
2023-02-20T07:10:12.309Z,13.5
2023-02-20T07:12:15.398Z,14.2
2023-02-20T07:14:18.525Z,10
2023-02-20T07:16:21.677Z,15.6
2023-02-20T07:18:24.726Z,10.4
2023-02-20T07:20:30.991Z,11.7
2023-02-20T07:22:34.094Z,10.5
2023-02-20T07:24:37.189Z,12.5
2023-02-20T07:27:43.452Z,10.2
2023-02-20T07:31:49.704Z,12.2
2023-02-20T07:35:59.056Z,11.8
2023-02-20T07:38:02.132Z,10.9
2023-02-20T07:42:08.360Z,9.5
2023-02-20T07:44:11.452Z,8.8
2023-02-20T07:46:14.928Z,9
2023-02-20T07:48:20.845Z,11
2023-02-20T07:50:23.933Z,9.2
2023-02-20T07:52:27.073Z,10.9
2023-02-20T07:56:33.248Z,8.6
2023-02-20T07:58:36.344Z,9.5
2023-02-20T08:00:39.445Z,7.7
2023-02-20T08:02:45.737Z,8.6
2023-02-20T08:04:48.892Z,8.2
2023-02-20T08:06:51.945Z,8.3
2023-02-20T08:08:55.064Z,8.6
2023-02-20T08:11:08.401Z,8.4
2023-02-20T08:13:01.254Z,7.3
2023-02-20T08:15:04.339Z,8.7
2023-02-20T08:17:10.649Z,5.6
2023-02-20T08:19:13.823Z,8.7
2023-02-20T08:21:16.870Z,6.3
2023-02-20T08:22:21.503Z,6.2
2023-02-20T08:24:23.117Z,8.7
2023-02-20T08:26:26.208Z,6.7
2023-02-20T08:28:29.319Z,9.2
2023-02-20T08:30:35.685Z,5.2
2023-02-20T08:32:39.022Z,9.4
2023-02-20T08:34:41.833Z,9.2
2023-02-20T08:36:44.952Z,8.7
2023-02-20T08:38:48.036Z,8.4
2023-02-20T08:40:51.164Z,7.9
2023-02-20T08:42:54.246Z,7.6
2023-02-20T08:45:00.549Z,7
2023-02-20T08:47:03.676Z,9.3
2023-02-20T08:49:06.745Z,7.4
2023-02-20T08:51:09.853Z,6.1
2023-02-20T08:53:12.957Z,6.5
2023-02-20T08:55:16.057Z,7.1
2023-02-20T08:57:19.161Z,6.5
2023-02-20T08:59:25.474Z,5.6
2023-02-20T09:01:28.649Z,7.3
2023-02-20T09:03:31.741Z,6.5
2023-02-20T09:05:34.815Z,5.2
2023-02-20T09:07:37.928Z,7.1
2023-02-20T09:09:41.067Z,4.2
2023-02-20T09:11:44.170Z,6
2023-02-20T09:13:50.464Z,5.9
2023-02-20T09:15:53.602Z,5.5
2023-02-20T09:17:56.704Z,8.2
2023-02-20T09:20:20.815Z,5.9
2023-02-20T09:22:23.931Z,5.9
2023-02-20T09:24:27.040Z,8
2023-02-20T09:26:33.334Z,6
2023-02-20T09:28:36.440Z,6.7
2023-02-20T09:30:39.799Z,5.8
2023-02-20T09:32:42.759Z,7.1
2023-02-20T09:34:45.791Z,6.9
2023-02-20T09:36:48.967Z,6
2023-02-20T09:38:52.028Z,6.3
2023-02-20T09:40:58.342Z,6.6
2023-02-20T09:43:01.457Z,6.7
2023-02-20T09:45:04.561Z,7.6
2023-02-20T09:47:07.678Z,6.3
2023-02-20T09:49:10.774Z,6.3
2023-02-20T09:51:13.902Z,8.9
2023-02-20T09:53:17.012Z,5.8
2023-02-20T09:55:23.335Z,7.4
2023-02-20T09:57:26.451Z,6.5
2023-02-20T09:59:29.546Z,10.1
2023-02-20T10:01:32.683Z,7.9
2023-02-20T10:03:35.772Z,9
2023-02-20T10:05:38.901Z,7.9
2023-02-20T10:07:42.025Z,7.5
2023-02-20T10:09:48.310Z,8.2
2023-02-20T10:11:51.426Z,7.6
2023-02-20T10:13:54.536Z,8.6
2023-02-20T10:14:57.711Z,7.6
2023-02-20T10:17:00.829Z,6.7
2023-02-20T10:19:03.935Z,6.3
2023-02-20T10:21:07.065Z,9.2
2023-02-20T10:23:13.353Z,8.4
2023-02-20T10:25:16.501Z,9.2
2023-02-20T10:27:19.753Z,8.7
2023-02-20T10:29:22.704Z,8.9
2023-02-20T10:31:26.064Z,8.9
2023-02-20T10:33:28.934Z,10.5
2023-02-20T10:35:32.048Z,8.8
2023-02-20T10:39:41.482Z,8.6
2023-02-20T10:43:47.670Z,7.3
2023-02-20T10:47:53.918Z,9.3
2023-02-20T10:49:57.031Z,7.9
2023-02-20T10:56:09.573Z,8.8
2023-02-20T11:00:15.822Z,5.9
2023-02-20T11:02:19.049Z,5.2
2023-02-20T11:04:22.070Z,7.7
2023-02-20T11:06:28.328Z,8.3
2023-02-20T11:10:34.560Z,8.9
2023-02-20T11:11:37.675Z,6.1
2023-02-20T11:13:40.819Z,5.3
2023-02-20T11:15:43.988Z,6.6
2023-02-20T11:17:47.033Z,6.8
2023-02-20T11:19:53.353Z,5.9
2023-02-20T11:21:56.450Z,7
2023-02-20T11:23:59.549Z,6.4
2023-02-20T11:26:02.681Z,5.5
2023-02-20T11:30:08.945Z,5.1
2023-02-20T11:32:12.020Z,7.8
2023-02-20T11:34:18.312Z,7.3
2023-02-20T11:36:21.590Z,8.8
2023-02-20T11:38:24.560Z,6
2023-02-20T11:40:27.670Z,7.3
2023-02-20T11:42:30.792Z,5.3
2023-02-20T11:44:33.850Z,7.9
2023-02-20T11:46:36.992Z,7
2023-02-20T11:48:43.264Z,9.7
2023-02-20T11:50:46.380Z,7.4
2023-02-20T12:07:14.438Z,11.4
2023-02-20T12:08:17.716Z,11.9
2023-02-20T12:10:20.740Z,13.3
2023-02-20T12:12:23.856Z,11.6
2023-02-20T12:14:26.973Z,10.7
2023-02-20T12:16:34.877Z,10.6
2023-02-20T12:18:37.908Z,12.5
2023-02-20T12:20:41.048Z,10.6
2023-02-20T12:22:44.161Z,9.9
2023-02-20T12:24:47.248Z,8.9
2023-02-20T12:26:52.001Z,10.9
2023-02-20T12:28:53.475Z,12
2023-02-20T12:35:06.018Z,11.7
2023-02-20T12:41:15.413Z,12.2
2023-02-20T12:47:28.313Z,10.9
2023-02-20T12:49:31.416Z,11.9
2023-02-20T12:51:34.535Z,15.7
2023-02-20T12:53:37.627Z,13.5
2023-02-20T12:55:40.750Z,15.9
2023-02-20T13:01:53.291Z,15
2023-02-20T13:03:56.424Z,13.7
2023-02-20T13:06:24.237Z,15.2
2023-02-20T13:08:27.364Z,13.4
2023-02-20T13:18:46.121Z,14.9
2023-02-20T13:20:49.233Z,16.3
2023-02-20T13:22:52.348Z,11.9
2023-02-20T13:24:55.456Z,14.1
2023-02-20T13:27:01.759Z,14.3
2023-02-20T13:29:04.871Z,14.8
2023-02-20T13:31:07.983Z,15.4
2023-02-20T13:33:11.112Z,15.5
2023-02-20T13:35:14.277Z,16.7
2023-02-20T13:47:36.136Z,14.4
2023-02-20T13:49:39.239Z,15.6
2023-02-20T13:53:45.452Z,13.3
2023-02-20T13:57:54.923Z,16.1
2023-02-20T13:59:58.022Z,14.6
2023-02-20T14:01:01.326Z,16.3
2023-02-20T14:03:04.301Z,15.6
2023-02-20T14:13:34.152Z,13
2023-02-20T14:15:26.213Z,13.1
2023-02-20T14:17:29.453Z,14
2023-02-20T14:19:32.472Z,12.4
2023-02-20T14:21:35.557Z,11.6
2023-02-20T14:23:41.894Z,15.6
2023-02-20T14:25:59.813Z,15.5
2023-02-20T14:27:50.055Z,12.3
2023-02-20T14:29:51.237Z,13
2023-02-20T14:31:54.470Z,13.1
2023-02-20T14:33:57.479Z,14.1
2023-02-20T14:36:00.585Z,11.2
2023-02-20T14:38:06.971Z,14.9
2023-02-20T14:40:10.051Z,9.9
2023-02-20T14:42:13.122Z,14.3
2023-02-20T14:44:16.249Z,18.6
2023-02-20T14:46:19.449Z,15.1
2023-02-20T14:48:22.496Z,15.3
2023-02-20T14:50:25.618Z,13.7
2023-02-20T14:52:31.928Z,14.7
2023-02-20T14:54:35.081Z,15.1
2023-02-20T14:56:38.177Z,15.1
2023-02-20T14:59:44.443Z,18.1
2023-02-20T15:01:47.636Z,17.7
2023-02-20T15:05:57.004Z,18.3
2023-02-20T15:08:00.217Z,17.4
2023-02-20T15:10:03.264Z,16.9
2023-02-20T15:12:06.373Z,19.8
2023-02-20T15:14:09.485Z,20.4
2023-02-20T15:18:15.716Z,18.7
2023-02-20T15:22:25.163Z,20
2023-02-20T15:24:28.284Z,22.1
2023-02-20T15:26:31.389Z,19.4
2023-02-20T15:28:34.531Z,18.4
2023-02-20T15:30:37.733Z,17.4
2023-02-20T15:32:40.806Z,17
2023-02-20T15:34:47.102Z,18.1
2023-02-20T15:36:50.215Z,18.9
2023-02-20T15:38:55.147Z,18.1
2023-02-20T15:40:56.498Z,15.7
2023-02-20T15:42:59.791Z,15.8
2023-02-20T15:45:02.717Z,15
2023-02-20T15:47:05.808Z,14.3
2023-02-20T15:49:19.383Z,14.8
2023-02-20T15:51:15.593Z,14.7
2023-02-20T15:53:18.358Z,14.8
2023-02-20T15:54:21.519Z,14.9
2023-02-20T15:56:24.635Z,17.6
2023-02-20T15:58:31.453Z,15.8
2023-02-20T16:00:30.870Z,15.3
2023-02-20T16:06:43.437Z,18.4
2023-02-20T16:08:46.568Z,19.3
2023-02-20T16:10:49.630Z,17.7
2023-02-20T16:12:52.761Z,17.9
2023-02-20T16:14:55.879Z,19.5
2023-02-20T16:17:02.221Z,17.6
2023-02-20T16:19:05.309Z,18.4
2023-02-20T16:21:08.490Z,17.6
2023-02-20T16:23:11.555Z,19.1
2023-02-20T16:25:14.677Z,21.1
2023-02-20T16:27:23.926Z,20.7
2023-02-20T16:29:20.901Z,19.4
2023-02-20T16:31:27.304Z,23.7
2023-02-20T16:33:30.326Z,21.4
2023-02-20T16:35:33.435Z,23.6
2023-02-20T16:37:36.568Z,25.5
2023-02-20T16:39:39.681Z,23.9
2023-02-20T16:41:42.934Z,24.6
2023-02-20T16:43:45.900Z,24.9
2023-02-20T16:45:52.256Z,23.7
2023-02-20T16:49:58.425Z,18.5
2023-02-20T16:54:25.255Z,18.3
2023-02-20T16:56:28.378Z,18.7
2023-02-20T16:58:34.681Z,16.9
2023-02-20T17:02:40.910Z,18.1
2023-02-20T17:04:44.063Z,16.9
2023-02-20T17:08:50.204Z,17.8
2023-02-20T17:10:53.320Z,20.6
2023-02-20T17:15:02.755Z,20.2
2023-02-20T17:17:05.877Z,22.1
2023-02-20T17:19:08.971Z,20.5
2023-02-20T17:21:12.614Z,25.4
2023-02-20T17:23:15.205Z,23.5
2023-02-20T17:25:18.313Z,21.2
2023-02-20T17:27:24.643Z,20.4
2023-02-20T17:29:27.738Z,21.6
2023-02-20T17:31:30.979Z,22.1
2023-02-20T17:33:33.968Z,21.2
2023-02-20T17:35:37.087Z,21.7
2023-02-20T17:37:40.219Z,22.5
2023-02-20T17:39:43.335Z,18.9
2023-02-20T17:41:49.653Z,21.8
2023-02-20T17:43:52.762Z,17.6
2023-02-20T17:45:55.880Z,19.2
2023-02-20T17:46:59.109Z,20.7
2023-02-20T17:49:02.190Z,18.8
2023-02-20T17:51:05.299Z,21.2
2023-02-20T17:57:17.815Z,20.3
2023-02-20T18:01:24.120Z,19.6
2023-02-20T18:03:27.218Z,22.9
2023-02-20T18:05:30.284Z,22.7
2023-02-20T18:07:33.390Z,20.1
2023-02-20T18:09:39.693Z,17.7
2023-02-20T18:11:44.410Z,23.1
2023-02-20T18:13:47.434Z,18.1
2023-02-20T18:15:50.557Z,21.3
2023-02-20T18:17:53.674Z,23.7
2023-02-20T18:19:56.768Z,24.5
2023-02-20T18:21:59.917Z,20.4
2023-02-20T18:24:06.223Z,20.7
2023-02-20T18:26:09.301Z,22.8
2023-02-20T18:28:12.420Z,22.7
2023-02-20T18:30:15.666Z,25.2
2023-02-20T18:36:25.208Z,24.4
2023-02-20T18:40:34.317Z,21.8
2023-02-20T18:42:37.420Z,22.1
2023-02-20T18:43:40.592Z,22.7
2023-02-20T18:45:43.732Z,22.5
2023-02-20T18:47:46.814Z,23.1
2023-02-20T18:49:49.950Z,22.3
2023-02-20T18:51:56.246Z,22.8
2023-02-20T18:53:59.329Z,24
2023-02-20T18:56:02.454Z,22.2
2023-02-20T18:58:05.601Z,26.2
2023-02-20T19:00:08.701Z,23.9
2023-02-20T19:02:11.858Z,25.1
2023-02-20T19:04:14.976Z,26.4
2023-02-20T19:06:21.249Z,22.9
2023-02-20T19:08:24.340Z,28.1
2023-02-20T19:10:27.441Z,25.3
2023-02-20T19:12:30.550Z,24.9
2023-02-20T19:14:33.659Z,24.1
2023-02-20T19:16:36.832Z,25.7
2023-02-20T19:18:49.700Z,26.2
2023-02-20T19:20:46.173Z,24.1
2023-02-20T19:26:55.497Z,20.6
2023-02-20T19:33:04.804Z,24.5
2023-02-20T19:35:11.156Z,25.7
2023-02-20T19:37:14.252Z,19
2023-02-20T19:40:20.579Z,13
2023-02-20T19:44:26.770Z,21.3
2023-02-20T19:48:36.162Z,16.4
2023-02-20T19:54:45.505Z,20.1
2023-02-20T20:00:54.815Z,23.7
2023-02-20T20:03:01.135Z,19.9
2023-02-20T20:05:04.232Z,22.2
2023-02-20T20:07:07.331Z,23.1
2023-02-20T20:11:13.548Z,18.6
2023-02-20T20:13:16.686Z,23.6
2023-02-20T20:15:19.776Z,21.1
2023-02-20T20:17:26.119Z,23.9
2023-02-20T20:19:29.207Z,22.3
2023-02-20T20:21:32.306Z,25.2
2023-02-20T20:23:35.419Z,24.1
2023-02-20T20:25:38.532Z,22.6
2023-02-20T20:27:41.641Z,23.5
2023-02-20T20:29:45.008Z,23.6
2023-02-20T20:31:51.073Z,26.3
2023-02-20T20:33:54.138Z,22
2023-02-20T20:35:57.249Z,22.1
2023-02-20T20:38:21.400Z,23.3
2023-02-20T20:40:24.495Z,19.9
2023-02-20T20:42:27.607Z,18.5
2023-02-20T20:44:33.857Z,23.8
2023-02-20T20:46:36.988Z,24.8
2023-02-20T20:48:40.060Z,22.1
2023-02-20T20:50:43.166Z,23.2
2023-02-20T20:52:46.259Z,22.8
2023-02-20T20:54:49.385Z,22.3
2023-02-20T20:56:52.487Z,20.5
2023-02-20T20:58:58.807Z,23.7
2023-02-20T21:01:01.930Z,22.3
2023-02-20T21:03:05.259Z,23.8
2023-02-20T21:05:10.591Z,24
2023-02-20T21:07:11.250Z,20.4
2023-02-20T21:09:14.356Z,25.6
2023-02-20T21:13:23.782Z,24.1
2023-02-20T21:15:26.897Z,29.9
2023-02-20T21:17:30.019Z,28.7
2023-02-20T21:23:39.353Z,28.7
2023-02-20T21:27:48.795Z,31.6
2023-02-20T21:29:51.905Z,31
2023-02-20T21:31:55.037Z,29.7
2023-02-20T21:32:58.153Z,35.1
2023-02-20T21:35:01.273Z,33.6
2023-02-20T21:37:04.386Z,35.9
2023-02-20T21:39:07.505Z,33.2
2023-02-20T21:41:14.032Z,32.5
2023-02-20T21:43:16.917Z,33.8
2023-02-20T21:45:20.019Z,33.1
2023-02-20T21:47:23.128Z,33.6
2023-02-20T21:49:26.230Z,33.8
2023-02-20T21:51:29.360Z,32.3
2023-02-20T21:53:32.448Z,33.8
2023-02-20T21:55:38.777Z,35.4
2023-02-20T21:57:41.904Z,36.7
2023-02-20T21:59:45.008Z,35
2023-02-20T22:01:48.270Z,28.3
2023-02-20T22:03:51.220Z,31.1
2023-02-20T22:05:54.343Z,31.2
2023-02-20T22:07:57.461Z,34.1
2023-02-20T22:10:03.789Z,39.9
2023-02-20T22:12:06.883Z,34
2023-02-20T22:14:09.983Z,34.2
2023-02-20T22:16:13.166Z,36.1
2023-02-20T22:18:16.210Z,34.7
2023-02-20T22:20:19.319Z,35.6
2023-02-20T22:22:22.447Z,33.4
2023-02-20T22:26:31.867Z,40
2023-02-20T22:28:34.949Z,36.8
2023-02-20T22:33:44.339Z,36.5
2023-02-20T22:39:56.904Z,35.4
2023-02-20T22:41:59.999Z,42.8
2023-02-20T22:46:06.218Z,34.2
2023-02-20T22:48:09.351Z,32.7
2023-02-20T22:52:18.776Z,38.9
2023-02-20T22:56:24.958Z,34.7
2023-02-20T22:58:28.090Z,30.4
2023-02-20T23:00:31.321Z,34
2023-02-20T23:02:34.343Z,35.9
2023-02-20T23:04:37.452Z,36.1
2023-02-20T23:08:46.851Z,36.2
2023-02-20T23:10:49.986Z,33.2
2023-02-20T23:12:53.094Z,37
2023-02-20T23:14:56.180Z,36.8
2023-02-20T23:16:59.301Z,30.9
2023-02-20T23:19:02.429Z,30.3
2023-02-20T23:21:08.754Z,34.9
2023-02-20T23:25:14.972Z,31.5
2023-02-20T23:26:18.106Z,31.2
2023-02-20T23:28:28.970Z,31
2023-02-20T23:30:24.423Z,29.9
2023-02-20T23:32:27.470Z,31.8
2023-02-20T23:34:33.779Z,30.2
2023-02-20T23:36:36.881Z,26.2
2023-02-20T23:38:39.985Z,27.9
2023-02-20T23:40:43.075Z,31.5
2023-02-20T23:42:46.196Z,29.3
2023-02-20T23:44:49.309Z,26.7
2023-02-20T23:48:58.739Z,26.7
2023-02-20T23:51:01.874Z,25.9
2023-02-20T23:53:04.955Z,28.8
2023-02-20T23:55:08.072Z,27.4
2023-02-20T23:57:11.221Z,27
